Time;durP1;ratioP1;P1;durP2;ratioP2;P2;SDS_P1;SDS_P2;PMS_P1;PMS_P2;Temp;Humidity;BMP_temperature;BMP_pressure;BME280_temperature;BME280_humidity;BME280_pressure;Samples;Min_cycle;Max_cycle;Signal;HPM_P1;HPM_P2
2023/08/15 00:01:08;;;;;;;2.33;1.60;;;18.00;99.90;;;;;;4996507;28;20038;-86
2023/08/15 00:03:34;;;;;;;2.67;1.40;;;18.00;99.90;;;;;;4996412;28;20038;-86
2023/08/15 00:05:59;;;;;;;3.20;1.50;;;17.90;99.90;;;;;;4996137;28;20446;-85
2023/08/15 00:08:25;;;;;;;2.30;1.58;;;18.00;99.90;;;;;;5004285;28;20044;-84
2023/08/15 00:10:50;;;;;;;4.68;1.88;;;17.90;99.90;;;;;;5013604;28;20048;-85
2023/08/15 00:13:16;;;;;;;4.43;1.77;;;17.90;99.90;;;;;;5025156;28;20045;-85
2023/08/15 00:15:42;;;;;;;3.33;1.65;;;17.90;99.90;;;;;;5031788;28;20469;-86
2023/08/15 00:18:08;;;;;;;4.32;2.25;;;17.90;99.90;;;;;;5014977;28;20049;-86
2023/08/15 00:20:33;;;;;;;5.43;2.85;;;17.90;99.90;;;;;;5032973;28;20033;-85
2023/08/15 00:22:59;;;;;;;6.60;2.92;;;17.90;99.90;;;;;;5015695;28;20482;-86
2023/08/15 00:25:25;;;;;;;3.00;1.77;;;17.80;99.90;;;;;;5015607;28;20045;-86
2023/08/15 00:27:51;;;;;;;5.03;1.90;;;17.80;99.90;;;;;;5011807;28;20057;-86
2023/08/15 00:30:16;;;;;;;6.15;2.38;;;17.80;99.90;;;;;;5014972;28;20045;-85
2023/08/15 00:32:42;;;;;;;5.38;2.40;;;17.80;99.90;;;;;;5032219;28;20037;-87
2023/08/15 00:35:10;;;;;;;4.50;2.40;;;17.70;99.90;;;;;;5032399;28;20613;-87
2023/08/15 00:37:36;;;;;;;6.38;2.80;;;17.80;99.90;;;;;;5007473;28;20053;-87
2023/08/15 00:40:02;;;;;;;6.20;3.17;;;17.80;99.90;;;;;;4996092;28;20045;-87
2023/08/15 00:42:28;;;;;;;6.80;2.92;;;17.80;99.90;;;;;;5013376;28;20483;-86
2023/08/15 00:44:53;;;;;;;6.90;3.03;;;17.70;99.90;;;;;;5012162;28;20044;-87
2023/08/15 00:47:20;;;;;;;8.55;3.35;;;17.60;99.90;;;;;;5016442;28;20500;-87
2023/08/15 00:49:46;;;;;;;6.18;3.08;;;17.80;99.90;;;;;;5015782;28;20037;-86
2023/08/15 00:52:13;;;;;;;6.63;2.90;;;17.80;99.90;;;;;;5011333;28;20121;-86
2023/08/15 00:54:45;;;;;;;4.75;2.60;;;17.70;99.90;;;;;;4995932;28;20057;-87
2023/08/15 00:57:11;;;;;;;6.53;3.03;;;17.60;99.90;;;;;;4995855;28;20038;-87
2023/08/15 00:59:37;;;;;;;7.65;3.00;;;17.60;99.90;;;;;;5011913;28;20125;-85
2023/08/15 01:02:03;;;;;;;5.97;3.15;;;17.60;99.90;;;;;;5012240;28;20100;-86
2023/08/15 01:04:31;;;;;;;6.30;3.42;;;17.60;99.90;;;;;;4995341;28;20120;-85
2023/08/15 01:06:57;;;;;;;6.15;2.60;;;17.70;99.90;;;;;;5011914;28;20042;-85
2023/08/15 01:09:23;;;;;;;6.35;2.50;;;17.70;99.90;;;;;;4995809;28;20160;-86
2023/08/15 01:12:15;;;;;;;5.28;2.30;;;17.60;99.90;;;;;;5011950;28;20511;-86
2023/08/15 01:14:49;;;;;;;6.20;2.63;;;17.60;99.90;;;;;;5002151;28;20520;-86
2023/08/15 01:17:22;;;;;;;4.10;2.20;;;17.50;99.90;;;;;;5012797;28;20038;-86
2023/08/15 01:19:51;;;;;;;5.25;2.47;;;17.60;99.90;;;;;;5015515;28;20037;-86
2023/08/15 01:22:28;;;;;;;8.48;3.42;;;17.50;99.90;;;;;;5011389;28;20072;-85
2023/08/15 01:24:54;;;;;;;5.35;3.03;;;17.50;99.90;;;;;;5031743;28;20042;-85
2023/08/15 01:27:20;;;;;;;9.93;4.28;;;17.50;99.90;;;;;;5030038;28;20103;-84
2023/08/15 01:29:45;;;;;;;9.38;3.97;;;17.40;99.90;;;;;;5031585;28;20037;-84
2023/08/15 01:32:23;;;;;;;10.23;4.32;;;17.50;99.90;;;;;;5015045;28;20140;-86
2023/08/15 01:35:09;;;;;;;9.25;3.95;;;17.60;99.90;;;;;;5022662;28;20482;-85
2023/08/15 01:37:37;;;;;;;7.72;3.95;;;17.60;99.90;;;;;;5004085;28;20079;-86
2023/08/15 01:40:09;;;;;;;7.22;3.65;;;17.50;99.90;;;;;;5015048;28;20111;-85
2023/08/15 01:42:39;;;;;;;9.68;4.90;;;17.50;99.90;;;;;;5015227;28;20081;-87
2023/08/15 01:45:06;;;;;;;9.93;4.28;;;17.60;99.90;;;;;;5014512;28;20096;-87
2023/08/15 01:47:34;;;;;;;10.40;4.57;;;17.50;99.90;;;;;;5005952;28;20548;-86
2023/08/15 01:50:00;;;;;;;8.50;4.50;;;17.50;99.90;;;;;;4995109;28;20088;-86
2023/08/15 01:52:26;;;;;;;5.97;3.88;;;17.60;99.90;;;;;;5020701;28;20421;-84
2023/08/15 01:54:51;;;;;;;9.65;5.07;;;17.50;99.90;;;;;;5031523;28;20447;-84
2023/08/15 01:57:17;;;;;;;9.98;5.28;;;17.60;99.90;;;;;;5031944;28;20396;-86
2023/08/15 01:59:43;;;;;;;9.07;5.13;;;17.60;99.90;;;;;;5034765;28;20041;-87
2023/08/15 02:02:10;;;;;;;8.88;4.93;;;17.60;99.90;;;;;;5018327;28;20049;-85
2023/08/15 02:04:35;;;;;;;12.65;5.85;;;17.50;99.90;;;;;;5017480;28;20045;-86
2023/08/15 02:07:01;;;;;;;12.07;6.53;;;17.50;99.90;;;;;;5017453;28;20070;-85
2023/08/15 02:09:27;;;;;;;11.95;7.28;;;17.60;99.90;;;;;;5034825;28;20394;-85
2023/08/15 02:11:52;;;;;;;9.73;6.35;;;17.70;99.90;;;;;;5034757;28;20037;-86
2023/08/15 02:14:18;;;;;;;13.18;6.63;;;17.60;99.90;;;;;;5017271;28;20033;-86
2023/08/15 02:16:44;;;;;;;10.57;6.10;;;17.60;99.90;;;;;;5018044;28;20033;-87
2023/08/15 02:19:09;;;;;;;10.82;5.47;;;17.60;99.90;;;;;;5034484;28;20045;-86
2023/08/15 02:21:35;;;;;;;11.70;6.18;;;17.50;99.90;;;;;;5016437;28;20037;-86
2023/08/15 02:24:01;;;;;;;9.73;5.70;;;17.50;99.90;;;;;;4999700;28;20072;-84
2023/08/15 02:26:26;;;;;;;7.95;4.40;;;17.50;99.90;;;;;;5015648;28;20049;-84
2023/08/15 02:28:52;;;;;;;7.20;4.10;;;17.50;99.90;;;;;;5017804;28;20096;-85
2023/08/15 02:31:17;;;;;;;9.05;4.72;;;17.50;99.90;;;;;;5017629;28;20112;-84
2023/08/15 02:33:43;;;;;;;8.25;5.05;;;17.50;99.90;;;;;;5034494;28;20040;-85
2023/08/15 02:36:09;;;;;;;7.55;4.43;;;17.50;99.90;;;;;;5016900;28;20052;-85
2023/08/15 02:38:35;;;;;;;11.77;4.75;;;17.40;99.90;;;;;;5034146;28;20068;-85
2023/08/15 02:41:00;;;;;;;9.80;5.13;;;17.40;99.90;;;;;;5017524;28;20126;-85
2023/08/15 02:43:26;;;;;;;7.75;4.90;;;17.50;99.90;;;;;;5018749;28;20133;-86
2023/08/15 02:45:52;;;;;;;9.35;5.57;;;17.50;99.90;;;;;;4997915;28;20044;-86
2023/08/15 02:48:17;;;;;;;9.52;4.55;;;17.50;99.90;;;;;;5014462;28;20042;-86
2023/08/15 02:50:43;;;;;;;9.63;5.35;;;17.50;99.90;;;;;;4997960;28;20042;-86
2023/08/15 02:53:09;;;;;;;9.70;5.20;;;17.40;99.90;;;;;;5029207;28;20540;-85
2023/08/15 02:55:34;;;;;;;9.02;4.50;;;17.40;99.90;;;;;;5027257;28;20091;-85
2023/08/15 02:58:00;;;;;;;9.07;4.60;;;17.30;99.90;;;;;;5017306;28;20106;-85
2023/08/15 03:00:26;;;;;;;10.18;5.03;;;17.30;99.90;;;;;;5017084;28;20100;-86
2023/08/15 03:02:55;;;;;;;14.82;7.40;;;17.40;99.90;;;;;;5033774;28;20037;-86
2023/08/15 03:05:20;;;;;;;12.43;7.88;;;17.50;99.90;;;;;;5002557;28;20038;-85
2023/08/15 03:07:46;;;;;;;11.10;7.00;;;17.50;99.90;;;;;;5004190;28;20040;-86
2023/08/15 03:10:11;;;;;;;12.57;7.85;;;17.50;99.90;;;;;;5004722;28;20065;-86
2023/08/15 03:12:37;;;;;;;15.07;9.40;;;17.60;99.90;;;;;;5014766;28;20433;-86
2023/08/15 03:15:04;;;;;;;15.85;9.70;;;17.60;99.90;;;;;;5026988;28;20120;-84
2023/08/15 03:17:33;;;;;;;13.95;9.82;;;17.80;99.90;;;;;;5023878;28;20038;-86
2023/08/15 03:19:58;;;;;;;14.80;10.35;;;17.90;99.90;;;;;;5032121;28;20047;-86
2023/08/15 03:22:24;;;;;;;14.30;9.80;;;17.80;99.90;;;;;;5023393;28;20033;-86
2023/08/15 03:24:49;;;;;;;13.85;9.77;;;17.80;99.90;;;;;;5014876;28;20405;-86
2023/08/15 03:27:15;;;;;;;12.60;9.90;;;17.70;99.90;;;;;;5025769;28;20042;-86
2023/08/15 03:29:41;;;;;;;13.40;10.07;;;17.80;99.90;;;;;;5039087;28;20038;-86
2023/08/15 03:32:06;;;;;;;11.98;9.18;;;17.70;99.90;;;;;;5028356;28;20096;-86
2023/08/15 03:34:32;;;;;;;12.68;9.32;;;17.80;99.90;;;;;;5032269;28;20116;-85
2023/08/15 03:36:57;;;;;;;13.23;9.60;;;17.70;99.90;;;;;;5028810;28;20135;-85
2023/08/15 03:39:23;;;;;;;13.63;9.15;;;17.80;99.90;;;;;;5032708;28;20045;-85
2023/08/15 03:41:49;;;;;;;12.43;9.73;;;17.80;99.90;;;;;;5006147;28;20041;-85
2023/08/15 03:44:14;;;;;;;14.88;10.50;;;17.80;99.90;;;;;;5034583;28;20040;-85
2023/08/15 03:46:44;;;;;;;12.95;10.00;;;17.80;99.90;;;;;;5014734;28;20064;-85
2023/08/15 03:49:10;;;;;;;14.98;11.15;;;17.80;99.90;;;;;;5016883;28;20030;-86
2023/08/15 03:51:36;;;;;;;13.43;9.50;;;17.80;99.90;;;;;;5002269;28;20543;-85
2023/08/15 03:54:02;;;;;;;12.90;8.93;;;17.80;99.90;;;;;;5023534;28;20038;-86
2023/08/15 03:56:27;;;;;;;12.68;9.48;;;17.80;99.90;;;;;;5015763;28;20040;-85
2023/08/15 03:58:53;;;;;;;13.40;9.43;;;17.80;99.90;;;;;;4999592;28;20030;-86
2023/08/15 04:01:19;;;;;;;14.27;9.88;;;17.80;99.90;;;;;;5014052;28;20037;-86
2023/08/15 04:03:49;;;;;;;13.98;9.43;;;17.70;99.90;;;;;;5019239;28;20065;-86
2023/08/15 04:06:14;;;;;;;12.25;9.15;;;17.70;99.90;;;;;;5006219;28;20044;-85
2023/08/15 04:08:40;;;;;;;15.07;11.07;;;17.80;99.90;;;;;;5011583;28;20034;-85
2023/08/15 04:11:06;;;;;;;16.30;10.13;;;17.70;99.90;;;;;;5030557;28;20171;-85
2023/08/15 04:13:31;;;;;;;13.05;9.77;;;17.70;99.90;;;;;;5026342;28;20041;-85
2023/08/15 04:15:57;;;;;;;12.70;9.65;;;17.70;99.90;;;;;;5016864;28;20082;-85
2023/08/15 04:18:22;;;;;;;13.35;10.35;;;17.70;99.90;;;;;;5025778;28;21359;-84
2023/08/15 04:20:48;;;;;;;11.68;8.90;;;17.70;99.90;;;;;;5016284;28;20043;-85
2023/08/15 04:23:13;;;;;;;14.00;9.35;;;17.70;99.90;;;;;;5003515;28;20059;-85
2023/08/15 04:25:40;;;;;;;12.65;8.77;;;17.70;99.90;;;;;;5032143;28;20045;-85
2023/08/15 04:28:06;;;;;;;12.07;9.23;;;17.70;99.90;;;;;;5018657;28;20056;-84
2023/08/15 04:30:34;;;;;;;12.38;9.93;;;17.70;99.90;;;;;;5013635;28;20099;-85
2023/08/15 04:32:59;;;;;;;13.15;10.20;;;17.90;99.90;;;;;;5006302;28;20420;-85
2023/08/15 04:35:29;;;;;;;12.52;10.15;;;17.80;99.90;;;;;;5022713;28;20130;-85
2023/08/15 04:37:54;;;;;;;14.00;10.63;;;17.80;99.90;;;;;;5026725;28;20037;-85
2023/08/15 04:40:34;;;;;;;12.98;10.38;;;18.00;99.90;;;;;;5021261;28;20037;-86
2023/08/15 04:43:01;;;;;;;13.85;11.27;;;17.70;99.90;;;;;;5026317;28;20125;-85
2023/08/15 04:45:26;;;;;;;15.38;11.68;;;17.90;99.90;;;;;;5041310;28;20041;-85
2023/08/15 04:47:52;;;;;;;15.75;12.15;;;17.80;99.90;;;;;;5036970;28;20452;-83
2023/08/15 04:50:18;;;;;;;16.23;11.95;;;17.80;99.90;;;;;;5004506;28;20540;-86
2023/08/15 04:52:44;;;;;;;17.85;12.20;;;17.80;99.90;;;;;;5030464;28;20030;-86
2023/08/15 04:55:13;;;;;;;15.40;12.30;;;17.90;99.90;;;;;;5006899;28;20037;-87
2023/08/15 04:57:39;;;;;;;18.80;14.25;;;18.10;99.90;;;;;;5032064;28;20095;-86
2023/08/15 05:00:08;;;;;;;18.17;13.73;;;18.20;99.90;;;;;;5003366;28;20497;-85
2023/08/15 05:02:35;;;;;;;22.00;17.92;;;18.30;99.90;;;;;;5029684;28;20041;-86
2023/08/15 05:05:14;;;;;;;20.65;16.98;;;18.20;99.90;;;;;;5020159;28;20041;-85
2023/08/15 05:07:40;;;;;;;20.55;16.58;;;18.20;99.90;;;;;;5019022;28;20042;-85
2023/08/15 05:10:07;;;;;;;20.90;14.70;;;18.10;99.90;;;;;;5003037;28;20107;-86
2023/08/15 05:12:33;;;;;;;20.50;15.73;;;18.20;99.90;;;;;;5002160;28;20508;-85
2023/08/15 05:14:59;;;;;;;18.52;15.18;;;18.30;99.90;;;;;;5022740;28;20120;-85
2023/08/15 05:17:24;;;;;;;20.15;15.70;;;18.30;99.90;;;;;;5007267;28;20042;-85
2023/08/15 05:19:50;;;;;;;19.38;14.75;;;18.30;99.90;;;;;;5024762;28;20045;-85
2023/08/15 05:22:15;;;;;;;20.25;15.35;;;18.30;99.90;;;;;;5014078;28;20049;-85
2023/08/15 05:24:41;;;;;;;18.95;14.63;;;18.30;99.90;;;;;;5019712;28;20053;-85
2023/08/15 05:27:06;;;;;;;16.63;14.15;;;18.30;99.90;;;;;;5013124;28;20057;-85
2023/08/15 05:29:32;;;;;;;17.70;13.55;;;18.30;99.90;;;;;;5004807;28;20042;-84
2023/08/15 05:31:58;;;;;;;19.58;15.02;;;18.40;99.90;;;;;;5028440;28;20034;-85
2023/08/15 05:34:23;;;;;;;19.67;14.77;;;18.30;99.90;;;;;;5022728;28;20038;-84
2023/08/15 05:36:49;;;;;;;20.33;14.70;;;18.40;99.90;;;;;;5023952;28;20052;-85
2023/08/15 05:39:14;;;;;;;21.38;14.48;;;18.40;99.90;;;;;;5029222;28;20513;-84
2023/08/15 05:41:40;;;;;;;18.65;13.38;;;18.40;99.90;;;;;;5041908;28;20073;-84
2023/08/15 05:44:06;;;;;;;16.50;11.73;;;18.40;99.90;;;;;;5047884;28;20425;-84
2023/08/15 05:46:31;;;;;;;17.77;12.98;;;18.40;99.90;;;;;;5018158;28;20033;-85
2023/08/15 05:48:57;;;;;;;14.63;11.48;;;18.40;99.90;;;;;;5033520;28;20034;-84
2023/08/15 05:51:22;;;;;;;16.13;10.57;;;18.40;99.90;;;;;;5007334;28;20042;-84
2023/08/15 05:53:48;;;;;;;13.85;10.88;;;18.40;99.90;;;;;;5025491;28;20430;-84
2023/08/15 05:56:14;;;;;;;14.05;9.90;;;18.40;99.90;;;;;;5025196;28;20042;-84
2023/08/15 05:58:39;;;;;;;13.88;10.25;;;18.40;99.90;;;;;;5012777;28;20421;-84
2023/08/15 06:01:05;;;;;;;14.25;9.18;;;18.40;99.90;;;;;;5025793;28;20413;-84
2023/08/15 06:03:31;;;;;;;11.60;8.50;;;18.40;99.90;;;;;;5034991;28;20095;-84
2023/08/15 06:05:56;;;;;;;13.45;8.27;;;18.40;99.90;;;;;;5028099;28;20042;-84
2023/08/15 06:08:22;;;;;;;15.10;8.43;;;18.40;99.90;;;;;;4999431;28;20038;-84
2023/08/15 06:10:47;;;;;;;12.27;8.43;;;18.30;99.90;;;;;;5024648;28;20037;-84
2023/08/15 06:13:13;;;;;;;13.38;8.32;;;18.40;99.90;;;;;;5032645;28;20076;-84
2023/08/15 06:15:38;;;;;;;11.80;7.18;;;18.30;99.90;;;;;;5020501;28;20401;-85
2023/08/15 06:18:04;;;;;;;11.90;8.00;;;18.40;99.90;;;;;;5017175;28;20056;-84
2023/08/15 06:20:31;;;;;;;13.18;8.32;;;18.40;99.90;;;;;;5022842;28;20037;-84
2023/08/15 06:22:56;;;;;;;12.82;8.18;;;18.40;99.90;;;;;;5002763;28;20046;-84
2023/08/15 06:25:22;;;;;;;13.05;7.68;;;18.40;99.90;;;;;;5028499;28;20045;-84
2023/08/15 06:27:47;;;;;;;10.73;7.15;;;18.40;99.90;;;;;;5009883;28;20049;-84
2023/08/15 06:30:13;;;;;;;13.07;6.63;;;18.40;99.90;;;;;;5021255;28;20125;-84
2023/08/15 06:32:39;;;;;;;14.05;6.53;;;18.50;99.90;;;;;;5026456;28;20492;-84
2023/08/15 06:35:05;;;;;;;13.38;6.20;;;18.50;99.90;;;;;;4998359;28;20041;-84
2023/08/15 06:37:32;;;;;;;15.05;7.25;;;18.60;99.90;;;;;;5009682;28;20041;-84
2023/08/15 06:39:57;;;;;;;11.60;5.35;;;18.60;99.90;;;;;;5001375;28;20498;-84
2023/08/15 06:42:23;;;;;;;15.07;5.57;;;18.80;99.90;;;;;;5018713;28;20041;-84
2023/08/15 06:44:48;;;;;;;11.00;4.93;;;18.80;99.90;;;;;;5027997;28;20049;-84
2023/08/15 06:47:14;;;;;;;13.80;4.65;;;18.80;99.90;;;;;;5026446;28;20490;-84
2023/08/15 06:49:40;;;;;;;10.50;4.97;;;18.90;99.90;;;;;;5014133;28;20441;-84
2023/08/15 06:52:07;;;;;;;12.88;4.65;;;18.80;99.90;;;;;;5033041;28;20087;-84
2023/08/15 06:54:33;;;;;;;11.48;4.47;;;18.90;99.90;;;;;;5027852;28;20476;-84
2023/08/15 06:56:58;;;;;;;11.07;4.50;;;18.90;99.90;;;;;;5028005;28;20037;-84
2023/08/15 06:59:24;;;;;;;10.82;3.85;;;18.90;99.90;;;;;;5017818;28;20048;-84
2023/08/15 07:01:52;;;;;;;12.77;4.22;;;18.90;99.90;;;;;;5022902;28;20033;-85
2023/08/15 07:04:18;;;;;;;10.23;3.70;;;18.90;99.90;;;;;;5028065;28;20041;-84
2023/08/15 07:06:44;;;;;;;10.48;4.13;;;19.00;99.90;;;;;;5024174;28;20038;-84
2023/08/15 07:09:10;;;;;;;11.45;3.90;;;19.10;99.90;;;;;;5008147;28;20132;-78
2023/08/15 07:11:36;;;;;;;13.65;3.97;;;19.20;99.90;;;;;;5021326;28;20038;-85
2023/08/15 07:14:02;;;;;;;10.35;4.07;;;19.30;99.90;;;;;;5016027;28;20047;-86
2023/08/15 07:16:27;;;;;;;12.40;4.07;;;19.30;99.90;;;;;;5011150;28;20044;-86
2023/08/15 07:18:53;;;;;;;11.75;4.25;;;19.40;99.90;;;;;;5033231;28;20044;-85
2023/08/15 07:21:19;;;;;;;11.48;4.30;;;19.50;99.90;;;;;;5028800;28;20033;-86
2023/08/15 07:23:44;;;;;;;13.52;4.25;;;19.60;99.90;;;;;;5029897;28;20490;-86
2023/08/15 07:26:11;;;;;;;13.02;4.28;;;19.60;99.90;;;;;;5004374;28;20073;-87
2023/08/15 07:28:37;;;;;;;11.23;4.40;;;19.80;99.90;;;;;;5033206;28;20192;-86
2023/08/15 07:31:03;;;;;;;10.32;3.80;;;19.90;99.90;;;;;;5031878;28;20038;-86
2023/08/15 07:33:28;;;;;;;8.77;3.67;;;19.80;99.90;;;;;;5032015;28;20047;-86
2023/08/15 07:35:54;;;;;;;9.90;3.50;;;19.90;99.90;;;;;;5008041;28;20397;-86
2023/08/15 07:38:19;;;;;;;14.48;3.97;;;20.00;99.90;;;;;;5012140;28;20095;-86
2023/08/15 07:40:47;;;;;;;12.07;3.40;;;20.20;99.90;;;;;;5015982;28;20065;-85
2023/08/15 07:43:13;;;;;;;11.00;3.38;;;20.10;99.90;;;;;;5031518;28;20120;-86
2023/08/15 07:45:39;;;;;;;8.95;3.30;;;20.20;99.90;;;;;;5026573;28;20829;-86
2023/08/15 07:48:05;;;;;;;12.50;3.30;;;20.20;99.90;;;;;;5029627;28;20044;-87
2023/08/15 07:50:31;;;;;;;10.25;3.20;;;20.30;99.90;;;;;;5031363;28;20037;-86
2023/08/15 07:52:59;;;;;;;8.65;3.42;;;20.40;99.90;;;;;;5032414;28;20105;-86
2023/08/15 07:55:27;;;;;;;8.75;2.95;;;20.40;99.90;;;;;;5031879;28;20037;-86
2023/08/15 07:57:52;;;;;;;11.15;3.00;;;20.50;99.90;;;;;;5032578;28;20045;-87
2023/08/15 08:00:18;;;;;;;9.35;2.88;;;20.60;99.90;;;;;;5032046;28;20095;-86
2023/08/15 08:02:44;;;;;;;11.77;2.95;;;20.60;99.90;;;;;;5012693;28;20072;-87
2023/08/15 08:05:11;;;;;;;12.52;3.22;;;20.50;99.90;;;;;;5030443;28;20494;-85
2023/08/15 08:07:40;;;;;;;8.32;2.50;;;20.40;99.90;;;;;;5032375;28;20379;-87
2023/08/15 08:10:06;;;;;;;10.98;3.13;;;20.30;99.90;;;;;;5013737;28;20051;-86
2023/08/15 08:12:31;;;;;;;9.13;2.85;;;20.20;99.90;;;;;;5004637;28;20040;-86
2023/08/15 08:14:57;;;;;;;9.40;2.70;;;20.20;99.90;;;;;;5015509;28;20041;-86
2023/08/15 08:17:23;;;;;;;9.98;2.95;;;20.20;99.90;;;;;;5013248;28;20067;-86
2023/08/15 08:19:49;;;;;;;9.25;2.60;;;20.30;99.90;;;;;;5020626;28;20052;-86
2023/08/15 08:22:15;;;;;;;7.82;2.35;;;20.40;99.90;;;;;;5023946;28;20041;-87
2023/08/15 08:24:40;;;;;;;7.47;2.40;;;20.40;99.90;;;;;;5020201;28;20113;-86
2023/08/15 08:27:06;;;;;;;10.48;2.28;;;20.50;99.90;;;;;;5012265;28;20049;-86
2023/08/15 08:29:32;;;;;;;7.05;2.10;;;20.60;99.90;;;;;;5009469;28;20061;-86
2023/08/15 08:31:57;;;;;;;7.55;2.40;;;20.80;99.90;;;;;;5029578;28;20042;-86
2023/08/15 08:34:23;;;;;;;7.10;1.83;;;20.90;99.90;;;;;;5029272;28;20048;-86
2023/08/15 08:36:48;;;;;;;7.10;2.28;;;21.00;99.90;;;;;;5031637;28;20552;-86
2023/08/15 08:39:14;;;;;;;7.82;2.08;;;21.10;99.90;;;;;;5035984;28;20072;-86
2023/08/15 08:41:40;;;;;;;9.27;2.20;;;21.10;99.90;;;;;;5031635;28;20405;-86
2023/08/15 08:44:06;;;;;;;9.23;1.85;;;21.20;99.90;;;;;;5038181;28;20047;-86
2023/08/15 08:46:33;;;;;;;7.93;2.03;;;21.40;99.90;;;;;;5015023;28;20068;-86
2023/08/15 08:49:00;;;;;;;8.35;2.00;;;21.40;99.90;;;;;;5018535;28;20045;-86
2023/08/15 08:51:26;;;;;;;8.68;2.13;;;21.40;99.90;;;;;;5013525;28;20025;-86
2023/08/15 08:53:53;;;;;;;7.70;2.00;;;21.40;99.90;;;;;;5031126;28;20039;-86
2023/08/15 08:56:21;;;;;;;6.40;2.00;;;21.40;99.90;;;;;;5030572;28;20042;-85
2023/08/15 08:58:58;;;;;;;8.05;2.13;;;21.30;99.90;;;;;;5005469;28;20044;-86
2023/08/15 09:01:25;;;;;;;7.45;2.20;;;21.30;99.90;;;;;;5014521;28;20042;-86
2023/08/15 09:03:51;;;;;;;6.28;1.70;;;21.30;99.90;;;;;;5028995;28;20042;-86
2023/08/15 09:06:17;;;;;;;8.93;2.35;;;21.30;99.90;;;;;;5007400;28;20521;-87
2023/08/15 09:08:43;;;;;;;6.95;1.67;;;21.50;99.90;;;;;;5024502;28;20045;-86
2023/08/15 09:11:08;;;;;;;6.97;1.67;;;21.60;99.90;;;;;;5033760;28;20037;-86
2023/08/15 09:13:34;;;;;;;5.95;1.48;;;21.70;99.90;;;;;;5035372;28;20029;-86
2023/08/15 09:16:03;;;;;;;6.65;1.75;;;21.80;99.90;;;;;;5018451;28;20087;-86
2023/08/15 09:18:33;;;;;;;6.60;1.60;;;21.80;99.90;;;;;;5008220;28;20049;-86
2023/08/15 09:20:58;;;;;;;6.05;1.42;;;21.80;99.90;;;;;;5031354;28;20087;-85
2023/08/15 09:23:24;;;;;;;6.85;1.80;;;21.90;99.90;;;;;;5031811;28;20030;-86
2023/08/15 09:25:54;;;;;;;6.60;1.52;;;22.00;99.90;;;;;;5007031;28;20091;-87
2023/08/15 09:28:20;;;;;;;5.57;1.50;;;22.10;99.90;;;;;;5027644;28;20042;-85
2023/08/15 09:30:51;;;;;;;5.35;1.52;;;22.30;99.90;;;;;;5029730;28;20033;-87
2023/08/15 09:33:17;;;;;;;4.32;1.50;;;22.30;99.90;;;;;;5039608;28;20055;-86
2023/08/15 09:35:43;;;;;;;10.35;2.10;;;22.30;99.90;;;;;;5018522;28;20124;-87
2023/08/15 09:38:10;;;;;;;5.95;1.60;;;22.50;99.90;;;;;;5030490;28;20030;-87
2023/08/15 09:40:36;;;;;;;9.13;1.73;;;22.60;99.90;;;;;;5010572;28;20037;-86
2023/08/15 09:43:03;;;;;;;7.10;1.98;;;22.60;99.90;;;;;;5032248;28;20030;-86
2023/08/15 09:45:29;;;;;;;8.68;1.90;;;22.60;99.90;;;;;;5035655;28;20474;-87
2023/08/15 09:47:55;;;;;;;6.35;2.03;;;22.60;99.90;;;;;;5015637;28;20038;-87
2023/08/15 09:50:21;;;;;;;6.95;1.88;;;22.50;99.90;;;;;;5032271;28;20482;-87
2023/08/15 09:52:47;;;;;;;7.30;2.13;;;22.40;99.90;;;;;;5034360;28;20169;-87
2023/08/15 09:55:16;;;;;;;7.35;1.70;;;22.20;99.90;;;;;;5029103;28;20046;-86
2023/08/15 09:57:43;;;;;;;6.55;1.52;;;22.00;99.90;;;;;;5035919;28;20073;-86
2023/08/15 10:00:12;;;;;;;8.00;1.83;;;21.90;99.90;;;;;;5017720;28;20472;-87
2023/08/15 10:02:51;;;;;;;7.25;1.90;;;21.80;99.90;;;;;;5036158;28;20038;-86
2023/08/15 10:05:20;;;;;;;8.45;2.13;;;21.60;99.90;;;;;;5003949;28;20038;-86
2023/08/15 10:07:47;;;;;;;6.63;1.83;;;21.50;99.90;;;;;;5017900;28;20041;-87
2023/08/15 10:10:15;;;;;;;6.78;1.70;;;21.40;99.90;;;;;;5009467;28;20029;-87
2023/08/15 10:12:42;;;;;;;6.78;1.83;;;21.40;99.90;;;;;;5033325;28;20050;-87
2023/08/15 10:15:09;;;;;;;5.88;2.22;;;21.50;99.90;;;;;;5009415;28;20040;-86
2023/08/15 10:17:35;;;;;;;7.68;1.83;;;21.50;99.90;;;;;;5010998;28;20045;-87
2023/08/15 10:20:05;;;;;;;6.60;1.80;;;21.50;99.90;;;;;;5027604;28;20619;-87
2023/08/15 10:22:33;;;;;;;6.97;2.22;;;21.40;99.90;;;;;;5016241;28;20046;-87
2023/08/15 10:25:22;;;;;;;7.95;1.80;;;21.40;99.90;;;;;;5033424;28;20048;-87
2023/08/15 10:27:50;;;;;;;8.10;2.00;;;21.40;99.90;;;;;;5012198;28;20050;-87
2023/08/15 10:30:33;;;;;;;7.15;2.00;;;21.40;99.90;;;;;;5024645;28;20042;-86
2023/08/15 10:33:01;;;;;;;5.32;1.98;;;21.60;99.90;;;;;;5050811;28;20069;-87
2023/08/15 10:35:27;;;;;;;7.07;2.20;;;21.90;99.90;;;;;;5020455;28;20521;-87
2023/08/15 10:37:56;;;;;;;6.82;2.10;;;22.10;99.90;;;;;;5025224;28;20083;-85
2023/08/15 10:40:36;;;;;;;6.18;2.30;;;22.30;99.90;;;;;;5016007;28;20037;-86
2023/08/15 10:43:06;;;;;;;7.03;2.35;;;22.30;99.90;;;;;;5017438;28;20512;-86
2023/08/15 10:45:50;;;;;;;7.93;2.17;;;22.40;99.90;;;;;;5030548;28;20049;-86
2023/08/15 10:48:37;;;;;;;5.43;2.03;;;22.40;99.90;;;;;;5016860;28;20069;-86
2023/08/15 10:51:03;;;;;;;8.13;2.08;;;22.50;99.90;;;;;;5016157;28;20132;-86
2023/08/15 10:53:29;;;;;;;6.78;2.20;;;22.50;99.90;;;;;;5015761;28;20466;-87
2023/08/15 10:55:54;;;;;;;5.82;2.47;;;22.60;99.90;;;;;;5008314;28;20525;-86
2023/08/15 10:58:21;;;;;;;7.88;2.17;;;22.50;99.90;;;;;;5009132;28;20501;-87
2023/08/15 11:00:49;;;;;;;5.63;2.20;;;22.50;99.90;;;;;;4999577;28;20053;-85
2023/08/15 11:03:15;;;;;;;6.90;2.30;;;22.50;99.90;;;;;;5011931;28;20041;-86
2023/08/15 11:05:41;;;;;;;7.72;2.35;;;22.40;99.90;;;;;;5015202;28;20217;-87
2023/08/15 11:08:28;;;;;;;6.38;2.50;;;22.50;99.90;;;;;;5032311;28;20041;-78
2023/08/15 11:10:53;;;;;;;6.63;2.30;;;22.70;99.90;;;;;;5012914;28;20498;-79
2023/08/15 11:13:19;;;;;;;7.80;2.50;;;22.80;99.90;;;;;;5005927;28;20149;-79
2023/08/15 11:15:45;;;;;;;8.25;2.28;;;22.90;99.90;;;;;;4999664;28;20067;-78
2023/08/15 11:18:20;;;;;;;8.45;2.50;;;22.80;99.90;;;;;;5016053;28;20037;-79
2023/08/15 11:20:46;;;;;;;6.40;1.90;;;23.00;99.90;;;;;;5015795;28;20052;-83
2023/08/15 11:23:11;;;;;;;6.47;2.20;;;23.00;99.90;;;;;;5014503;28;20041;-83
2023/08/15 11:25:37;;;;;;;5.50;2.33;;;23.00;99.90;;;;;;5002767;28;20044;-82
2023/08/15 11:28:03;;;;;;;4.20;1.83;;;23.10;99.90;;;;;;5026485;28;20093;-80
2023/08/15 11:30:29;;;;;;;6.53;2.22;;;23.20;99.90;;;;;;5026116;28;20044;-81
2023/08/15 11:32:54;;;;;;;5.07;1.90;;;23.30;99.90;;;;;;5034086;28;20038;-82
2023/08/15 11:35:22;;;;;;;7.95;1.98;;;23.40;99.90;;;;;;5020842;28;20077;-80
2023/08/15 11:37:48;;;;;;;5.68;1.83;;;23.40;99.90;;;;;;5025569;28;20042;-82
2023/08/15 11:40:13;;;;;;;7.60;1.85;;;23.30;99.90;;;;;;5026621;28;20037;-81
2023/08/15 11:42:39;;;;;;;6.53;1.88;;;23.20;99.90;;;;;;5033895;28;20037;-81
2023/08/15 11:45:16;;;;;;;5.95;1.90;;;23.00;99.90;;;;;;5033096;28;20386;-81
2023/08/15 11:48:09;;;;;;;6.45;2.00;;;22.90;99.90;;;;;;5021976;28;20059;-80
2023/08/15 11:50:35;;;;;;;4.97;1.60;;;23.00;99.90;;;;;;5026930;28;20045;-81
2023/08/15 11:53:08;;;;;;;4.95;1.70;;;23.00;99.90;;;;;;5026978;28;20103;-82
2023/08/15 11:55:37;;;;;;;4.30;1.67;;;22.90;99.90;;;;;;5029434;28;20141;-80
2023/08/15 11:58:19;;;;;;;6.75;1.83;;;22.90;99.90;;;;;;5009023;28;20124;-81
2023/08/15 12:00:45;;;;;;;5.30;1.85;;;22.90;99.90;;;;;;5007890;28;20518;-81
2023/08/15 12:03:11;;;;;;;5.20;1.65;;;22.80;99.90;;;;;;5029717;28;20057;-81
2023/08/15 12:05:38;;;;;;;4.88;1.88;;;22.80;99.90;;;;;;5022183;28;20034;-81
2023/08/15 12:08:03;;;;;;;5.50;2.00;;;22.70;99.90;;;;;;5015162;28;20049;-81
2023/08/15 12:10:30;;;;;;;6.53;2.22;;;22.60;99.90;;;;;;5004577;28;20121;-81
2023/08/15 12:12:56;;;;;;;6.00;1.95;;;22.60;99.90;;;;;;5015288;28;20043;-81
2023/08/15 12:15:22;;;;;;;8.23;2.30;;;22.80;99.90;;;;;;5008738;28;20048;-81
2023/08/15 12:17:47;;;;;;;6.43;2.28;;;22.90;99.90;;;;;;5003276;28;20119;-80
2023/08/15 12:20:14;;;;;;;9.02;2.10;;;22.90;99.90;;;;;;5010160;28;20128;-80
2023/08/15 12:22:41;;;;;;;7.38;2.08;;;23.00;99.90;;;;;;5006677;28;20045;-81
2023/08/15 12:25:08;;;;;;;7.05;1.95;;;23.00;99.90;;;;;;5029803;28;20079;-80
2023/08/15 12:27:37;;;;;;;8.32;2.10;;;22.80;99.90;;;;;;5026958;28;20053;-80
2023/08/15 12:30:07;;;;;;;6.97;1.92;;;22.60;99.90;;;;;;5029467;28;20087;-80
2023/08/15 12:32:33;;;;;;;5.13;2.00;;;22.70;99.90;;;;;;5027846;28;20042;-80
2023/08/15 12:34:59;;;;;;;6.80;1.70;;;22.70;99.90;;;;;;5002121;28;20049;-80
2023/08/15 12:37:25;;;;;;;4.07;1.80;;;22.70;99.90;;;;;;5006361;28;20401;-81
2023/08/15 12:39:51;;;;;;;7.40;2.25;;;22.80;99.90;;;;;;5013927;28;20038;-81